createdAt,value
2022-12-14T00:00:42.877Z,26.10
2022-12-14T00:03:17.597Z,23.57
2022-12-14T00:05:49.745Z,24.17
2022-12-14T00:08:21.498Z,26.57
2022-12-14T00:10:53.149Z,26.80
2022-12-14T00:13:24.927Z,24.33
2022-12-14T00:15:56.721Z,27.00
2022-12-14T00:18:29.170Z,32.67
2022-12-14T00:21:06.012Z,23.83
2022-12-14T00:23:39.262Z,24.30
2022-12-14T00:26:25.464Z,26.33
2022-12-14T00:28:58.005Z,26.67
2022-12-14T00:31:31.441Z,32.73
2022-12-14T00:34:03.257Z,32.20
2022-12-14T00:36:36.481Z,32.87
2022-12-14T00:39:08.136Z,31.30
2022-12-14T00:41:39.809Z,27.60
2022-12-14T00:44:11.615Z,26.00
2022-12-14T00:46:43.382Z,26.53
2022-12-14T00:49:15.117Z,25.20
2022-12-14T00:51:47.913Z,31.93
2022-12-14T00:54:19.610Z,33.60
2022-12-14T00:56:51.334Z,29.67
2022-12-14T00:59:27.209Z,34.93
2022-12-14T01:01:59.213Z,32.40
2022-12-14T01:04:31.351Z,33.90
2022-12-14T01:07:03.069Z,30.87
2022-12-14T01:09:34.805Z,30.77
2022-12-14T01:12:06.578Z,28.40
2022-12-14T01:14:38.358Z,29.27
2022-12-14T01:17:10.184Z,32.77
2022-12-14T01:19:42.013Z,26.90
2022-12-14T01:22:13.834Z,29.53
2022-12-14T01:24:45.640Z,29.10
2022-12-14T01:27:17.439Z,31.43
2022-12-14T01:29:49.113Z,28.80
2022-12-14T01:32:20.930Z,26.33
2022-12-14T01:34:52.634Z,36.33
2022-12-14T01:37:24.531Z,28.50
2022-12-14T01:39:56.252Z,26.43
2022-12-14T01:42:28.070Z,29.60
2022-12-14T01:44:59.877Z,23.23
2022-12-14T01:47:38.449Z,45.57
2022-12-14T01:50:20.933Z,27.00
2022-12-14T01:52:57.766Z,26.33
2022-12-14T01:55:36.563Z,24.83
2022-12-14T01:58:19.929Z,31.63
2022-12-14T02:00:58.378Z,26.70
2022-12-14T02:03:33.513Z,29.80
2022-12-14T02:06:22.142Z,34.90
2022-12-14T02:08:54.778Z,28.10
2022-12-14T02:11:38.693Z,29.20
2022-12-14T02:14:10.542Z,27.93
2022-12-14T02:16:42.605Z,26.40
2022-12-14T02:19:14.332Z,32.13
2022-12-14T02:21:48.890Z,31.17
2022-12-14T02:24:44.976Z,30.00
2022-12-14T02:27:25.560Z,28.20
2022-12-14T02:29:57.183Z,35.03
2022-12-14T02:32:49.911Z,29.77
2022-12-14T02:35:30.460Z,28.40
2022-12-14T02:38:27.909Z,31.93
2022-12-14T02:41:18.434Z,34.20
2022-12-14T02:44:25.427Z,34.30
2022-12-14T02:47:06.356Z,25.57
2022-12-14T02:50:06.019Z,32.03
2022-12-14T02:53:03.494Z,32.80
2022-12-14T02:55:49.897Z,34.50
2022-12-14T02:58:47.940Z,32.43
2022-12-14T03:01:25.147Z,37.40
2022-12-14T03:03:57.079Z,34.73
2022-12-14T03:06:29.590Z,33.40
2022-12-14T03:09:03.528Z,40.27
2022-12-14T03:11:46.917Z,31.37
2022-12-14T03:14:27.675Z,34.07
2022-12-14T03:17:07.513Z,32.33
2022-12-14T03:19:44.805Z,34.07
2022-12-14T03:22:40.230Z,30.23
2022-12-14T03:25:19.055Z,32.43
2022-12-14T03:28:01.831Z,30.57
2022-12-14T03:30:59.319Z,40.47
2022-12-14T03:33:32.197Z,31.30
2022-12-14T03:36:32.539Z,30.10
2022-12-14T03:39:07.892Z,33.73
2022-12-14T03:42:01.268Z,40.07
2022-12-14T03:44:48.861Z,31.00
2022-12-14T03:47:42.368Z,34.58
2022-12-14T03:50:35.810Z,34.70
2022-12-14T03:53:18.894Z,36.30
2022-12-14T03:56:16.366Z,30.10
2022-12-14T03:59:09.004Z,33.93
2022-12-14T04:02:07.938Z,27.10
2022-12-14T04:05:24.250Z,32.57
2022-12-14T04:08:06.888Z,33.80
2022-12-14T04:11:05.461Z,35.70
2022-12-14T04:14:01.441Z,31.20
2022-12-14T04:17:01.018Z,37.40
2022-12-14T04:19:43.777Z,28.70
2022-12-14T04:22:21.329Z,35.07
2022-12-14T04:25:20.671Z,35.50
2022-12-14T04:28:02.353Z,30.63
2022-12-14T04:30:38.932Z,32.70
2022-12-14T04:33:31.003Z,33.93
2022-12-14T04:36:04.264Z,36.73
2022-12-14T04:38:39.143Z,33.20
2022-12-14T04:41:15.168Z,31.30
2022-12-14T04:43:49.142Z,32.80
2022-12-14T04:46:26.907Z,37.53
2022-12-14T04:49:35.006Z,32.23
2022-12-14T04:52:15.763Z,34.03
2022-12-14T04:54:59.649Z,34.70
2022-12-14T04:57:53.247Z,37.27
2022-12-14T05:00:25.144Z,35.37
2022-12-14T05:03:13.341Z,32.83
2022-12-14T05:06:13.125Z,34.33
2022-12-14T05:09:12.127Z,41.07
2022-12-14T05:11:54.268Z,40.93
2022-12-14T05:15:05.746Z,38.43
2022-12-14T05:17:39.089Z,33.93
2022-12-14T05:20:17.865Z,39.83
2022-12-14T05:22:50.644Z,29.80
2022-12-14T05:25:22.455Z,34.50
2022-12-14T05:27:55.017Z,44.97
2022-12-14T05:30:26.907Z,32.90
2022-12-14T05:32:58.701Z,33.87
2022-12-14T05:35:30.685Z,32.67
2022-12-14T05:38:02.442Z,38.63
2022-12-14T05:40:34.655Z,36.87
2022-12-14T05:43:07.977Z,41.87
2022-12-14T05:45:39.772Z,35.47
2022-12-14T05:48:11.503Z,39.77
2022-12-14T05:50:43.166Z,31.33
2022-12-14T05:53:14.907Z,37.17
2022-12-14T05:55:48.129Z,37.40
2022-12-14T05:58:20.923Z,44.37
2022-12-14T06:00:52.726Z,34.87
2022-12-14T06:03:25.874Z,40.03
2022-12-14T06:06:06.292Z,38.10
2022-12-14T06:08:42.199Z,37.30
2022-12-14T06:11:21.926Z,40.77
2022-12-14T06:13:53.650Z,36.33
2022-12-14T06:16:26.655Z,39.13
2022-12-14T06:19:01.293Z,42.63
2022-12-14T06:21:35.575Z,42.40
2022-12-14T06:24:08.566Z,40.53
2022-12-14T06:26:41.129Z,35.37
2022-12-14T06:29:19.144Z,36.23
2022-12-14T06:31:50.849Z,46.37
2022-12-14T06:34:28.161Z,35.53
2022-12-14T06:37:00.377Z,40.30
2022-12-14T06:39:32.144Z,30.73
2022-12-14T06:42:04.024Z,39.23
2022-12-14T06:44:35.816Z,42.20
2022-12-14T06:47:07.527Z,42.27
2022-12-14T06:49:39.209Z,35.90
2022-12-14T06:52:11.016Z,38.90
2022-12-14T06:54:43.225Z,46.20
2022-12-14T06:57:15.041Z,42.53
2022-12-14T06:59:46.780Z,38.30
2022-12-14T07:02:18.572Z,43.27
2022-12-14T07:04:50.493Z,36.63
2022-12-14T07:07:22.435Z,39.73
2022-12-14T07:09:54.144Z,37.57
2022-12-14T07:12:27.818Z,41.37
2022-12-14T07:14:59.659Z,37.90
2022-12-14T07:17:31.633Z,45.90
2022-12-14T07:20:05.893Z,42.47
2022-12-14T07:22:38.838Z,41.97
2022-12-14T07:25:10.518Z,44.77
2022-12-14T07:27:42.316Z,41.20
2022-12-14T07:30:14.510Z,36.43
2022-12-14T07:32:46.875Z,39.67
2022-12-14T07:35:18.824Z,34.70
2022-12-14T07:37:50.553Z,38.13
2022-12-14T07:40:22.509Z,49.13
2022-12-14T07:42:54.483Z,40.27
2022-12-14T07:45:27.069Z,51.75
2022-12-14T07:47:58.897Z,46.20
2022-12-14T07:50:30.824Z,50.92
2022-12-14T07:53:02.567Z,44.17
2022-12-14T07:55:35.470Z,45.17
2022-12-14T07:58:07.357Z,49.27
2022-12-14T08:00:39.189Z,47.80
2022-12-14T08:03:11.674Z,44.47
2022-12-14T08:05:43.410Z,40.53
2022-12-14T08:08:15.263Z,42.03
2022-12-14T08:10:49.170Z,42.80
2022-12-14T08:13:20.896Z,50.70
2022-12-14T08:15:52.823Z,41.70
2022-12-14T08:18:24.622Z,47.83
2022-12-14T08:20:56.310Z,42.50
2022-12-14T08:23:28.563Z,51.37
2022-12-14T08:26:01.316Z,50.93
2022-12-14T08:28:34.540Z,48.50
2022-12-14T08:31:09.872Z,48.70
2022-12-14T08:33:43.407Z,46.10
2022-12-14T08:36:27.352Z,51.50
2022-12-14T08:39:01.048Z,53.57
2022-12-14T08:41:33.349Z,49.17
2022-12-14T08:44:05.519Z,44.90
2022-12-14T08:46:40.263Z,48.33
2022-12-14T08:49:12.381Z,53.00
2022-12-14T08:51:44.165Z,50.50
2022-12-14T08:54:17.382Z,51.27
2022-12-14T08:56:49.254Z,53.37
2022-12-14T08:59:52.050Z,49.03
2022-12-14T09:02:12.870Z,52.03
2022-12-14T09:04:44.711Z,48.97
2022-12-14T09:07:16.425Z,54.93
2022-12-14T09:09:48.183Z,58.27
2022-12-14T09:12:20.753Z,52.43
2022-12-14T09:14:52.464Z,60.57
2022-12-14T09:17:24.233Z,51.93
2022-12-14T09:19:56.016Z,50.27
2022-12-14T09:22:27.862Z,49.40
2022-12-14T09:24:59.764Z,53.60
2022-12-14T09:27:31.521Z,52.30
2022-12-14T09:30:03.916Z,55.00
2022-12-14T09:32:35.643Z,50.77
2022-12-14T09:35:07.881Z,53.97
2022-12-14T09:37:39.689Z,47.40
2022-12-14T09:40:13.524Z,60.10
2022-12-14T09:42:59.205Z,55.37
2022-12-14T09:45:34.189Z,52.87
2022-12-14T09:48:16.572Z,56.30
2022-12-14T09:50:50.216Z,48.63
2022-12-14T09:53:22.952Z,56.40
2022-12-14T09:55:56.889Z,47.37
2022-12-14T09:58:31.208Z,50.70
2022-12-14T10:01:24.246Z,51.27
2022-12-14T10:04:24.072Z,46.70
2022-12-14T10:07:17.465Z,48.23
2022-12-14T10:10:09.950Z,47.03
2022-12-14T10:12:52.345Z,48.23
2022-12-14T10:16:06.529Z,48.77
2022-12-14T10:19:01.872Z,47.83
2022-12-14T10:21:47.360Z,55.27
2022-12-14T10:24:45.096Z,53.63
2022-12-14T10:27:25.618Z,58.43
2022-12-14T10:30:06.257Z,58.67
2022-12-14T10:32:40.028Z,54.80
2022-12-14T10:35:17.056Z,60.85
2022-12-14T10:38:04.517Z,61.03
2022-12-14T10:40:52.467Z,54.83
2022-12-14T10:43:33.083Z,56.60
2022-12-14T10:46:30.797Z,53.13
2022-12-14T10:49:17.582Z,48.97
2022-12-14T10:51:55.166Z,55.23
2022-12-14T10:54:30.184Z,52.60
2022-12-14T10:57:02.024Z,42.90
2022-12-14T10:59:40.598Z,46.00
2022-12-14T11:02:27.494Z,56.27
2022-12-14T11:05:11.882Z,50.97
2022-12-14T11:07:45.813Z,49.70
2022-12-14T11:10:24.935Z,48.70
2022-12-14T11:13:17.788Z,46.10
2022-12-14T11:15:52.356Z,54.50
2022-12-14T11:18:31.260Z,55.40
2022-12-14T11:21:05.693Z,52.57
2022-12-14T11:23:43.770Z,53.10
2022-12-14T11:26:25.616Z,55.70
2022-12-14T11:28:59.342Z,52.70
2022-12-14T11:31:43.843Z,54.17
2022-12-14T11:34:35.873Z,48.40
2022-12-14T11:37:22.483Z,59.03
2022-12-14T11:40:05.785Z,48.50
2022-12-14T11:42:38.086Z,51.07
2022-12-14T11:45:39.771Z,48.73
2022-12-14T11:48:20.506Z,57.90
2022-12-14T11:50:55.210Z,51.67
2022-12-14T11:53:27.002Z,58.53
2022-12-14T11:56:02.003Z,47.07
2022-12-14T11:58:38.325Z,49.27
2022-12-14T12:01:16.270Z,53.50
2022-12-14T12:03:55.361Z,57.23
2022-12-14T12:06:29.810Z,55.10
2022-12-14T12:09:08.780Z,54.47
2022-12-14T12:11:45.319Z,49.50
2022-12-14T12:14:29.977Z,46.73
2022-12-14T12:17:01.758Z,47.80
2022-12-14T12:19:38.075Z,41.60
2022-12-14T12:22:13.746Z,45.07
2022-12-14T12:25:25.079Z,53.92
2022-12-14T12:28:02.249Z,49.47
2022-12-14T12:30:38.588Z,44.90
2022-12-14T12:33:22.482Z,53.43
2022-12-14T12:35:56.393Z,55.93
2022-12-14T12:38:31.400Z,48.13
2022-12-14T12:41:15.657Z,51.73
2022-12-14T12:44:05.498Z,53.93
2022-12-14T12:47:07.184Z,54.97
2022-12-14T12:49:37.089Z,56.10
2022-12-14T12:52:33.450Z,54.23
2022-12-14T12:55:16.166Z,49.60
2022-12-14T12:57:51.827Z,63.40
2022-12-14T13:00:28.333Z,60.57
2022-12-14T13:03:10.833Z,62.93
2022-12-14T13:05:46.839Z,55.97
2022-12-14T13:08:39.634Z,64.63
2022-12-14T13:11:35.872Z,52.20
2022-12-14T13:14:13.833Z,54.70
2022-12-14T13:16:46.501Z,52.83
2022-12-14T13:19:50.156Z,53.35
2022-12-14T13:22:27.819Z,51.17
2022-12-14T13:25:11.098Z,63.10
2022-12-14T13:28:01.135Z,51.10
2022-12-14T13:30:47.979Z,53.23
2022-12-14T13:33:33.098Z,52.67
2022-12-14T13:36:41.672Z,56.30
2022-12-14T13:39:32.119Z,51.10
2022-12-14T13:42:31.888Z,58.93
2022-12-14T13:45:19.541Z,51.17
2022-12-14T13:47:55.355Z,58.00
2022-12-14T13:50:42.421Z,60.93
2022-12-14T13:53:30.609Z,61.40
2022-12-14T13:56:02.957Z,56.90
2022-12-14T13:58:43.295Z,55.33
2022-12-14T14:01:46.364Z,57.40
2022-12-14T14:04:23.217Z,52.67
2022-12-14T14:06:56.958Z,61.90
2022-12-14T14:09:34.629Z,53.87
2022-12-14T14:12:34.319Z,51.80
2022-12-14T14:15:22.663Z,62.75
2022-12-14T14:18:07.290Z,56.63
2022-12-14T14:20:48.383Z,55.40
2022-12-14T14:23:23.300Z,54.47
2022-12-14T14:26:36.576Z,55.27
2022-12-14T14:29:11.369Z,53.67
2022-12-14T14:31:57.089Z,54.17
2022-12-14T14:34:44.665Z,53.97
2022-12-14T14:37:26.029Z,55.27
2022-12-14T14:40:33.540Z,51.77
2022-12-14T14:43:23.504Z,54.73
2022-12-14T14:45:58.859Z,51.70
2022-12-14T14:48:39.158Z,61.20
2022-12-14T14:51:10.833Z,56.77
2022-12-14T14:53:42.644Z,50.27
2022-12-14T14:56:34.192Z,49.27
2022-12-14T14:59:14.806Z,63.10
2022-12-14T15:02:01.485Z,57.13
2022-12-14T15:04:51.429Z,55.23
2022-12-14T15:07:30.120Z,50.27
2022-12-14T15:10:23.902Z,60.50
2022-12-14T15:13:02.092Z,62.80
2022-12-14T15:15:45.104Z,64.33
2022-12-14T15:18:30.808Z,58.40
2022-12-14T15:21:04.537Z,57.90
2022-12-14T15:23:45.280Z,57.10
2022-12-14T15:26:32.926Z,44.80
2022-12-14T15:29:05.037Z,53.70
2022-12-14T15:31:40.661Z,41.43
2022-12-14T15:34:17.919Z,51.07
2022-12-14T15:36:50.670Z,47.90
2022-12-14T15:39:40.204Z,49.93
2022-12-14T15:42:17.257Z,46.42
2022-12-14T15:44:51.000Z,52.10
2022-12-14T15:47:28.751Z,48.33
2022-12-14T15:50:35.037Z,48.20
2022-12-14T15:53:50.318Z,44.63
2022-12-14T15:56:27.510Z,45.70
2022-12-14T15:59:02.653Z,45.80
2022-12-14T16:01:46.105Z,47.17
2022-12-14T16:04:25.756Z,47.30
2022-12-14T16:07:09.436Z,51.40
2022-12-14T16:09:50.536Z,46.47
2022-12-14T16:12:45.320Z,44.30
2022-12-14T16:15:26.664Z,41.50
2022-12-14T16:18:02.701Z,38.57
2022-12-14T16:20:37.778Z,41.47
2022-12-14T16:23:15.810Z,42.80
2022-12-14T16:26:00.455Z,38.40
2022-12-14T16:28:37.187Z,38.10
2022-12-14T16:31:14.840Z,32.37
2022-12-14T16:33:50.269Z,37.20
2022-12-14T16:36:27.998Z,37.53
2022-12-14T16:39:20.904Z,40.88
2022-12-14T16:41:55.186Z,39.03
2022-12-14T16:44:33.082Z,39.30
2022-12-14T16:47:14.571Z,35.73
2022-12-14T16:50:01.921Z,37.73
2022-12-14T16:52:36.198Z,35.67
2022-12-14T16:55:19.969Z,31.77
2022-12-14T16:57:55.627Z,39.83
2022-12-14T17:00:36.121Z,38.90
2022-12-14T17:03:23.006Z,38.20
2022-12-14T17:05:58.653Z,33.50
2022-12-14T17:08:31.175Z,34.63
2022-12-14T17:11:03.265Z,25.67
2022-12-14T17:13:35.081Z,40.20
2022-12-14T17:16:08.002Z,36.57
2022-12-14T17:18:41.334Z,38.00
2022-12-14T17:21:21.940Z,32.23
2022-12-14T17:23:55.509Z,31.63
2022-12-14T17:26:30.736Z,37.77
2022-12-14T17:29:02.609Z,32.60
2022-12-14T17:31:34.666Z,32.37
2022-12-14T17:34:06.437Z,33.50
2022-12-14T17:36:38.404Z,27.80
2022-12-14T17:39:10.188Z,30.40
2022-12-14T17:41:44.997Z,34.47
2022-12-14T17:44:19.670Z,33.17
2022-12-14T17:46:52.151Z,34.50
2022-12-14T17:49:35.816Z,37.10
2022-12-14T17:52:15.370Z,36.27
2022-12-14T17:54:47.759Z,33.97
2022-12-14T17:57:24.249Z,33.43
2022-12-14T18:00:14.326Z,35.93
2022-12-14T18:02:46.412Z,32.97
2022-12-14T18:05:21.565Z,35.00
2022-12-14T18:07:53.270Z,35.93
2022-12-14T18:10:25.706Z,35.17
2022-12-14T18:12:57.890Z,30.77
2022-12-14T18:15:41.252Z,35.00
2022-12-14T18:18:13.258Z,34.67
2022-12-14T18:20:49.455Z,38.47
2022-12-14T18:23:22.337Z,33.87
2022-12-14T18:25:56.654Z,29.13
2022-12-14T18:28:28.486Z,27.60
2022-12-14T18:31:06.573Z,31.40
2022-12-14T18:33:39.292Z,29.47
2022-12-14T18:36:12.171Z,27.67
2022-12-14T18:38:44.039Z,36.33
2022-12-14T18:41:23.564Z,33.60
2022-12-14T18:43:55.968Z,33.07
2022-12-14T18:46:28.004Z,30.60
2022-12-14T18:48:59.733Z,31.10
2022-12-14T18:51:31.444Z,31.10
2022-12-14T18:54:03.922Z,32.20
2022-12-14T18:56:35.693Z,30.90
2022-12-14T18:59:07.468Z,31.03
2022-12-14T19:01:39.608Z,28.80
2022-12-14T19:04:11.465Z,28.73
2022-12-14T19:06:44.988Z,32.67
2022-12-14T19:09:17.688Z,33.17
2022-12-14T19:11:49.478Z,29.30
2022-12-14T19:14:21.165Z,31.37
2022-12-14T19:16:52.863Z,32.40
2022-12-14T19:19:27.873Z,29.60
2022-12-14T19:22:04.574Z,34.33
2022-12-14T19:24:36.282Z,33.70
2022-12-14T19:27:08.136Z,29.07
2022-12-14T19:29:39.849Z,33.63
2022-12-14T19:32:11.725Z,31.07
2022-12-14T19:34:43.669Z,36.17
2022-12-14T19:37:15.497Z,39.60
2022-12-14T19:39:47.230Z,36.03
2022-12-14T19:42:20.718Z,36.30
2022-12-14T19:44:52.487Z,40.90
2022-12-14T19:47:24.297Z,38.57
2022-12-14T19:49:56.014Z,35.40
2022-12-14T19:52:27.750Z,36.63
2022-12-14T19:54:59.964Z,35.30
2022-12-14T19:57:31.677Z,35.63
2022-12-14T20:00:04.837Z,31.43
2022-12-14T20:02:37.883Z,35.67
2022-12-14T20:05:09.888Z,41.47
2022-12-14T20:07:43.880Z,37.93
2022-12-14T20:10:15.944Z,37.33
2022-12-14T20:12:47.643Z,35.90
2022-12-14T20:15:19.392Z,33.67
2022-12-14T20:17:51.060Z,44.07
2022-12-14T20:20:23.230Z,33.90
2022-12-14T20:22:55.040Z,35.80
2022-12-14T20:25:26.727Z,36.67
2022-12-14T20:27:58.436Z,38.07
2022-12-14T20:30:30.665Z,31.63
2022-12-14T20:33:02.431Z,33.90
2022-12-14T20:35:34.182Z,34.57
2022-12-14T20:38:05.868Z,35.87
2022-12-14T20:40:39.295Z,31.30
2022-12-14T20:43:12.448Z,31.10
2022-12-14T20:45:44.253Z,34.33
2022-12-14T20:48:16.004Z,34.17
2022-12-14T20:50:51.139Z,42.90
2022-12-14T20:53:24.549Z,30.57
2022-12-14T20:55:56.458Z,38.07
2022-12-14T20:58:28.156Z,39.83
2022-12-14T21:01:06.486Z,38.70
2022-12-14T21:03:38.299Z,33.40
2022-12-14T21:06:10.186Z,34.30
2022-12-14T21:09:00.845Z,35.70
2022-12-14T21:11:56.871Z,43.43
2022-12-14T21:14:37.421Z,34.27
2022-12-14T21:17:09.927Z,40.77
2022-12-14T21:19:41.700Z,34.80
2022-12-14T21:22:16.630Z,33.90
2022-12-14T21:25:06.132Z,39.90
2022-12-14T21:27:39.343Z,37.03
2022-12-14T21:30:11.908Z,35.03
2022-12-14T21:32:43.643Z,39.70
2022-12-14T21:35:17.697Z,38.40
2022-12-14T21:37:49.510Z,45.17
2022-12-14T21:40:39.720Z,41.93
2022-12-14T21:43:12.740Z,40.13
2022-12-14T21:45:46.098Z,45.93
2022-12-14T21:48:18.001Z,41.90
2022-12-14T21:50:49.729Z,44.07
2022-12-14T21:53:21.497Z,46.57
2022-12-14T21:56:13.228Z,42.37
2022-12-14T21:58:52.848Z,36.37
2022-12-14T22:01:25.874Z,40.03
2022-12-14T22:03:57.690Z,42.43
2022-12-14T22:06:29.809Z,40.53
2022-12-14T22:09:01.898Z,40.20
2022-12-14T22:11:34.296Z,41.30
2022-12-14T22:14:06.070Z,38.57
2022-12-14T22:16:37.885Z,46.33
2022-12-14T22:19:15.708Z,42.27
2022-12-14T22:21:48.164Z,40.73
2022-12-14T22:24:21.493Z,38.70
2022-12-14T22:26:53.617Z,40.23
2022-12-14T22:29:25.631Z,47.73
2022-12-14T22:31:57.582Z,36.23
2022-12-14T22:34:29.485Z,42.80
2022-12-14T22:37:01.696Z,36.93
2022-12-14T22:39:33.533Z,38.60
2022-12-14T22:42:05.393Z,43.13
2022-12-14T22:44:37.611Z,38.90
2022-12-14T22:47:09.359Z,40.03
2022-12-14T22:49:41.172Z,36.83
2022-12-14T22:52:12.899Z,38.00
2022-12-14T22:54:44.623Z,40.27
2022-12-14T22:57:22.439Z,38.47
2022-12-14T23:00:07.238Z,41.65
2022-12-14T23:02:40.832Z,40.30
2022-12-14T23:05:15.515Z,44.10
2022-12-14T23:07:47.645Z,45.80
2022-12-14T23:10:38.492Z,35.43
2022-12-14T23:13:29.150Z,37.27
2022-12-14T23:16:19.637Z,37.57
2022-12-14T23:19:10.126Z,37.67
2022-12-14T23:22:00.501Z,42.17
2022-12-14T23:24:50.944Z,44.67
2022-12-14T23:27:41.520Z,37.33
2022-12-14T23:30:32.067Z,44.17
2022-12-14T23:33:22.514Z,38.10
2022-12-14T23:36:13.079Z,34.20
2022-12-14T23:39:03.625Z,40.67
2022-12-14T23:41:54.406Z,42.53
2022-12-14T23:44:44.572Z,41.83
2022-12-14T23:47:35.461Z,45.90
2022-12-14T23:50:25.922Z,49.40
2022-12-14T23:53:16.346Z,47.07
2022-12-14T23:56:06.834Z,47.30
2022-12-14T23:58:57.404Z,44.07
